sensor_id;sensor_type;location;lat;lon;timestamp;noise_LAeq;noise_LA_min;noise_LA_max;noise_LA01;noise_LA95
47109;Laerm;32856;51.422;6.794;2023-04-01T00:01:37;61.31;47.02;77.10;;
47109;Laerm;32856;51.422;6.794;2023-04-01T00:04:04;52.49;48.26;58.79;;
47109;Laerm;32856;51.422;6.794;2023-04-01T00:06:32;63.78;49.45;76.55;;
47109;Laerm;32856;51.422;6.794;2023-04-01T00:08:59;51.56;46.78;57.08;;
47109;Laerm;32856;51.422;6.794;2023-04-01T00:11:27;59.97;47.36;76.42;;
47109;Laerm;32856;51.422;6.794;2023-04-01T00:13:54;58.51;48.18;74.59;;
47109;Laerm;32856;51.422;6.794;2023-04-01T00:16:23;57.56;48.18;70.82;;
47109;Laerm;32856;51.422;6.794;2023-04-01T00:18:50;51.79;48.16;58.77;;
47109;Laerm;32856;51.422;6.794;2023-04-01T00:21:18;55.11;47.44;67.78;;
47109;Laerm;32856;51.422;6.794;2023-04-01T00:23:46;52.47;49.21;59.26;;
47109;Laerm;32856;51.422;6.794;2023-04-01T00:26:13;52.54;48.32;61.43;;
47109;Laerm;32856;51.422;6.794;2023-04-01T00:28:45;56.36;48.57;72.52;;
47109;Laerm;32856;51.422;6.794;2023-04-01T00:31:12;52.56;48.84;57.27;;
47109;Laerm;32856;51.422;6.794;2023-04-01T00:33:41;60.88;47.68;76.39;;
47109;Laerm;32856;51.422;6.794;2023-04-01T00:36:09;51.75;47.34;59.25;;
47109;Laerm;32856;51.422;6.794;2023-04-01T00:38:36;55.72;47.38;71.57;;
47109;Laerm;32856;51.422;6.794;2023-04-01T00:41:04;58.97;46.84;75.43;;
47109;Laerm;32856;51.422;6.794;2023-04-01T00:43:32;58.41;47.50;74.43;;
47109;Laerm;32856;51.422;6.794;2023-04-01T00:45:59;52.37;47.50;63.03;;
47109;Laerm;32856;51.422;6.794;2023-04-01T00:48:27;61.40;47.20;78.35;;
47109;Laerm;32856;51.422;6.794;2023-04-01T00:50:59;51.34;46.69;58.43;;
47109;Laerm;32856;51.422;6.794;2023-04-01T00:53:27;52.86;48.36;57.56;;
47109;Laerm;32856;51.422;6.794;2023-04-01T00:55:56;59.44;46.95;74.15;;
47109;Laerm;32856;51.422;6.794;2023-04-01T00:58:24;57.01;48.18;74.11;;
47109;Laerm;32856;51.422;6.794;2023-04-01T01:00:56;55.83;48.84;70.25;;
47109;Laerm;32856;51.422;6.794;2023-04-01T01:03:24;56.71;48.05;71.43;;
47109;Laerm;32856;51.422;6.794;2023-04-01T01:06:00;61.32;49.97;77.34;;
47109;Laerm;32856;51.422;6.794;2023-04-01T01:08:33;52.84;47.63;58.20;;
47109;Laerm;32856;51.422;6.794;2023-04-01T01:11:04;59.00;49.70;75.28;;
47109;Laerm;32856;51.422;6.794;2023-04-01T01:13:33;56.44;46.69;72.37;;
47109;Laerm;32856;51.422;6.794;2023-04-01T01:16:04;62.54;49.65;78.12;;
47109;Laerm;32856;51.422;6.794;2023-04-01T01:18:33;53.25;48.70;63.26;;
47109;Laerm;32856;51.422;6.794;2023-04-01T01:26:38;52.54;48.34;66.58;;
47109;Laerm;32856;51.422;6.794;2023-04-01T01:29:11;53.25;49.45;64.65;;
47109;Laerm;32856;51.422;6.794;2023-04-01T01:31:46;58.64;49.70;76.95;;
47109;Laerm;32856;51.422;6.794;2023-04-01T01:34:19;54.39;49.84;66.36;;
47109;Laerm;32856;51.422;6.794;2023-04-01T01:36:52;58.73;47.55;73.15;;
47109;Laerm;32856;51.422;6.794;2023-04-01T01:39:22;53.55;48.15;63.91;;
47109;Laerm;32856;51.422;6.794;2023-04-01T01:41:53;58.00;49.71;76.11;;
47109;Laerm;32856;51.422;6.794;2023-04-01T01:44:23;53.44;49.08;63.59;;
47109;Laerm;32856;51.422;6.794;2023-04-01T01:46:51;64.69;48.29;80.22;;
47109;Laerm;32856;51.422;6.794;2023-04-01T01:49:18;53.57;49.49;66.07;;
47109;Laerm;32856;51.422;6.794;2023-04-01T01:51:46;53.57;47.90;71.19;;
47109;Laerm;32856;51.422;6.794;2023-04-01T01:54:15;53.79;47.95;62.93;;
47109;Laerm;32856;51.422;6.794;2023-04-01T01:56:44;54.88;50.89;64.82;;
47109;Laerm;32856;51.422;6.794;2023-04-01T01:59:11;53.00;47.52;66.40;;
47109;Laerm;32856;51.422;6.794;2023-04-01T02:01:42;53.02;45.97;61.31;;
47109;Laerm;32856;51.422;6.794;2023-04-01T02:04:12;63.58;46.93;91.63;;
47109;Laerm;32856;51.422;6.794;2023-04-01T02:06:42;56.06;49.47;78.66;;
47109;Laerm;32856;51.422;6.794;2023-04-01T02:09:13;54.18;48.78;69.72;;
47109;Laerm;32856;51.422;6.794;2023-04-01T02:11:42;57.02;47.40;75.47;;
47109;Laerm;32856;51.422;6.794;2023-04-01T02:14:13;62.87;49.41;77.65;;
47109;Laerm;32856;51.422;6.794;2023-04-01T02:16:43;60.28;48.10;77.13;;
47109;Laerm;32856;51.422;6.794;2023-04-01T02:19:13;53.16;48.00;64.69;;
47109;Laerm;32856;51.422;6.794;2023-04-01T02:21:40;52.73;48.92;61.33;;
47109;Laerm;32856;51.422;6.794;2023-04-01T02:24:10;54.25;49.93;63.41;;
47109;Laerm;32856;51.422;6.794;2023-04-01T02:26:39;62.15;50.21;75.43;;
47109;Laerm;32856;51.422;6.794;2023-04-01T02:29:08;53.25;47.50;59.46;;
47109;Laerm;32856;51.422;6.794;2023-04-01T02:31:36;52.36;48.02;65.26;;
47109;Laerm;32856;51.422;6.794;2023-04-01T02:34:04;58.63;51.04;75.35;;
47109;Laerm;32856;51.422;6.794;2023-04-01T02:36:32;57.94;53.26;65.96;;
47109;Laerm;32856;51.422;6.794;2023-04-01T02:38:59;64.07;54.37;79.10;;
47109;Laerm;32856;51.422;6.794;2023-04-01T02:41:28;60.17;54.14;76.02;;
47109;Laerm;32856;51.422;6.794;2023-04-01T02:43:56;63.86;52.45;80.06;;
47109;Laerm;32856;51.422;6.794;2023-04-01T02:46:25;64.98;52.75;78.47;;
47109;Laerm;32856;51.422;6.794;2023-04-01T02:48:53;60.91;52.24;77.03;;
47109;Laerm;32856;51.422;6.794;2023-04-01T02:51:20;59.54;51.40;76.33;;
47109;Laerm;32856;51.422;6.794;2023-04-01T02:53:48;59.18;48.52;76.20;;
47109;Laerm;32856;51.422;6.794;2023-04-01T02:56:15;58.65;48.70;76.86;;
47109;Laerm;32856;51.422;6.794;2023-04-01T02:58:43;59.17;50.25;75.61;;
47109;Laerm;32856;51.422;6.794;2023-04-01T03:01:10;53.80;48.15;64.23;;
47109;Laerm;32856;51.422;6.794;2023-04-01T03:03:39;57.64;48.71;74.77;;
47109;Laerm;32856;51.422;6.794;2023-04-01T03:06:07;54.12;49.89;70.92;;
47109;Laerm;32856;51.422;6.794;2023-04-01T03:08:35;58.62;48.08;76.88;;
47109;Laerm;32856;51.422;6.794;2023-04-01T03:11:03;51.99;48.28;62.86;;
47109;Laerm;32856;51.422;6.794;2023-04-01T03:13:31;67.13;49.66;81.57;;
47109;Laerm;32856;51.422;6.794;2023-04-01T03:15:58;52.06;48.10;61.07;;
47109;Laerm;32856;51.422;6.794;2023-04-01T03:18:26;54.76;48.96;63.24;;
47109;Laerm;32856;51.422;6.794;2023-04-01T03:20:54;60.55;49.14;80.15;;
47109;Laerm;32856;51.422;6.794;2023-04-01T03:23:22;55.72;48.20;70.46;;
47109;Laerm;32856;51.422;6.794;2023-04-01T03:25:50;59.84;48.45;76.86;;
47109;Laerm;32856;51.422;6.794;2023-04-01T03:28:17;56.03;48.71;70.47;;
47109;Laerm;32856;51.422;6.794;2023-04-01T03:30:44;52.21;47.44;59.09;;
47109;Laerm;32856;51.422;6.794;2023-04-01T03:33:12;58.15;49.85;74.26;;
47109;Laerm;32856;51.422;6.794;2023-04-01T03:35:39;53.17;49.78;66.09;;
47109;Laerm;32856;51.422;6.794;2023-04-01T03:38:08;53.17;48.81;60.36;;
47109;Laerm;32856;51.422;6.794;2023-04-01T03:40:35;57.50;49.23;75.49;;
47109;Laerm;32856;51.422;6.794;2023-04-01T03:43:04;59.10;49.80;78.63;;
47109;Laerm;32856;51.422;6.794;2023-04-01T03:45:34;62.29;50.42;80.16;;
47109;Laerm;32856;51.422;6.794;2023-04-01T03:48:01;63.46;50.54;79.63;;
47109;Laerm;32856;51.422;6.794;2023-04-01T03:50:28;57.24;49.38;74.11;;
47109;Laerm;32856;51.422;6.794;2023-04-01T03:52:57;59.87;49.29;77.56;;
47109;Laerm;32856;51.422;6.794;2023-04-01T03:55:25;61.84;49.33;77.98;;
47109;Laerm;32856;51.422;6.794;2023-04-01T03:57:52;57.36;50.14;73.72;;
47109;Laerm;32856;51.422;6.794;2023-04-01T04:00:20;59.94;50.39;76.60;;
47109;Laerm;32856;51.422;6.794;2023-04-01T04:02:47;59.44;50.00;74.18;;
47109;Laerm;32856;51.422;6.794;2023-04-01T04:05:15;58.15;49.72;73.11;;
47109;Laerm;32856;51.422;6.794;2023-04-01T04:07:42;59.71;51.31;74.55;;
47109;Laerm;32856;51.422;6.794;2023-04-01T04:10:09;55.93;49.97;71.73;;
47109;Laerm;32856;51.422;6.794;2023-04-01T04:12:38;57.31;49.59;73.98;;
47109;Laerm;32856;51.422;6.794;2023-04-01T04:15:06;64.47;49.74;76.71;;
47109;Laerm;32856;51.422;6.794;2023-04-01T04:17:34;59.12;50.61;75.06;;
47109;Laerm;32856;51.422;6.794;2023-04-01T04:20:01;61.57;49.81;77.30;;
47109;Laerm;32856;51.422;6.794;2023-04-01T04:22:29;56.11;50.92;67.30;;
47109;Laerm;32856;51.422;6.794;2023-04-01T04:24:56;56.31;49.96;66.63;;
47109;Laerm;32856;51.422;6.794;2023-04-01T04:27:23;56.13;48.83;67.50;;
47109;Laerm;32856;51.422;6.794;2023-04-01T04:29:52;58.57;51.34;73.49;;
47109;Laerm;32856;51.422;6.794;2023-04-01T04:32:19;55.32;50.02;64.96;;
47109;Laerm;32856;51.422;6.794;2023-04-01T04:34:46;57.80;50.17;71.46;;
47109;Laerm;32856;51.422;6.794;2023-04-01T04:37:14;59.95;50.48;76.23;;
47109;Laerm;32856;51.422;6.794;2023-04-01T04:39:41;59.70;50.52;75.55;;
47109;Laerm;32856;51.422;6.794;2023-04-01T04:42:08;60.64;50.96;73.85;;
47109;Laerm;32856;51.422;6.794;2023-04-01T04:44:36;66.03;51.04;80.86;;
47109;Laerm;32856;51.422;6.794;2023-04-01T04:47:04;63.81;50.57;78.20;;
47109;Laerm;32856;51.422;6.794;2023-04-01T04:49:32;60.70;51.64;73.32;;
47109;Laerm;32856;51.422;6.794;2023-04-01T04:51:59;56.94;50.92;68.76;;
47109;Laerm;32856;51.422;6.794;2023-04-01T04:54:26;56.98;51.02;68.10;;
47109;Laerm;32856;51.422;6.794;2023-04-01T04:56:54;62.62;49.24;81.52;;
47109;Laerm;32856;51.422;6.794;2023-04-01T04:59:21;60.31;51.33;74.46;;
47109;Laerm;32856;51.422;6.794;2023-04-01T05:01:48;54.27;48.99;60.46;;
47109;Laerm;32856;51.422;6.794;2023-04-01T05:04:17;61.33;49.62;76.60;;
47109;Laerm;32856;51.422;6.794;2023-04-01T05:06:44;58.86;50.71;74.11;;
47109;Laerm;32856;51.422;6.794;2023-04-01T05:09:12;59.68;50.74;73.43;;
47109;Laerm;32856;51.422;6.794;2023-04-01T05:11:39;61.16;49.12;76.54;;
47109;Laerm;32856;51.422;6.794;2023-04-01T05:14:11;65.12;50.81;81.23;;
47109;Laerm;32856;51.422;6.794;2023-04-01T05:16:38;63.94;50.57;78.94;;
47109;Laerm;32856;51.422;6.794;2023-04-01T05:19:05;58.48;50.86;76.67;;
47109;Laerm;32856;51.422;6.794;2023-04-01T05:21:34;53.76;49.75;62.80;;
47109;Laerm;32856;51.422;6.794;2023-04-01T05:24:01;61.30;52.05;74.97;;
47109;Laerm;32856;51.422;6.794;2023-04-01T05:26:29;65.17;51.53;78.30;;
47109;Laerm;32856;51.422;6.794;2023-04-01T05:28:56;58.62;52.18;74.87;;
47109;Laerm;32856;51.422;6.794;2023-04-01T05:31:24;62.73;51.07;78.32;;
47109;Laerm;32856;51.422;6.794;2023-04-01T05:33:51;61.14;51.38;75.20;;
47109;Laerm;32856;51.422;6.794;2023-04-01T05:36:20;54.40;51.04;61.24;;
47109;Laerm;32856;51.422;6.794;2023-04-01T05:38:49;58.74;49.88;76.78;;
47109;Laerm;32856;51.422;6.794;2023-04-01T05:41:16;60.78;50.64;79.43;;
47109;Laerm;32856;51.422;6.794;2023-04-01T05:43:43;63.90;51.19;76.85;;
47109;Laerm;32856;51.422;6.794;2023-04-01T05:46:11;65.92;50.63;79.28;;
47109;Laerm;32856;51.422;6.794;2023-04-01T05:48:39;57.18;51.95;71.39;;
47109;Laerm;32856;51.422;6.794;2023-04-01T05:51:06;59.49;50.71;75.85;;
47109;Laerm;32856;51.422;6.794;2023-04-01T05:53:33;62.30;50.81;78.11;;
47109;Laerm;32856;51.422;6.794;2023-04-01T05:56:03;63.32;51.93;81.00;;
47109;Laerm;32856;51.422;6.794;2023-04-01T05:58:30;59.32;51.40;74.95;;
47109;Laerm;32856;51.422;6.794;2023-04-01T06:01:01;62.82;51.34;76.05;;
47109;Laerm;32856;51.422;6.794;2023-04-01T06:03:36;64.23;51.19;75.60;;
47109;Laerm;32856;51.422;6.794;2023-04-01T06:06:04;59.53;50.84;74.28;;
47109;Laerm;32856;51.422;6.794;2023-04-01T06:08:32;60.01;51.48;75.13;;
47109;Laerm;32856;51.422;6.794;2023-04-01T06:11:04;61.23;51.37;76.49;;
47109;Laerm;32856;51.422;6.794;2023-04-01T06:13:46;67.17;52.19;82.35;;
47109;Laerm;32856;51.422;6.794;2023-04-01T06:16:19;59.98;50.85;76.21;;
47109;Laerm;32856;51.422;6.794;2023-04-01T06:18:50;63.17;52.15;79.30;;
47109;Laerm;32856;51.422;6.794;2023-04-01T06:24:06;61.79;52.01;77.35;;
47109;Laerm;32856;51.422;6.794;2023-04-01T06:26:41;62.59;52.07;75.18;;
47109;Laerm;32856;51.422;6.794;2023-04-01T06:29:22;60.46;51.46;77.80;;
47109;Laerm;32856;51.422;6.794;2023-04-01T06:32:00;63.12;51.84;81.71;;
47109;Laerm;32856;51.422;6.794;2023-04-01T06:34:40;68.69;53.27;87.28;;
47109;Laerm;32856;51.422;6.794;2023-04-01T06:37:20;63.98;52.53;78.48;;
47109;Laerm;32856;51.422;6.794;2023-04-01T06:39:53;64.06;52.76;76.71;;
47109;Laerm;32856;51.422;6.794;2023-04-01T06:42:29;61.43;51.84;73.95;;
47109;Laerm;32856;51.422;6.794;2023-04-01T06:45:03;67.53;51.29;81.49;;
47109;Laerm;32856;51.422;6.794;2023-04-01T06:47:36;66.50;52.97;79.42;;
47109;Laerm;32856;51.422;6.794;2023-04-01T06:50:11;64.28;52.75;80.24;;
47109;Laerm;32856;51.422;6.794;2023-04-01T06:52:44;63.65;52.68;79.23;;
47109;Laerm;32856;51.422;6.794;2023-04-01T06:55:20;64.66;51.71;78.75;;
47109;Laerm;32856;51.422;6.794;2023-04-01T06:57:52;61.16;51.87;75.80;;
47109;Laerm;32856;51.422;6.794;2023-04-01T07:00:22;61.56;51.89;75.54;;
47109;Laerm;32856;51.422;6.794;2023-04-01T07:02:54;63.22;51.95;77.47;;
47109;Laerm;32856;51.422;6.794;2023-04-01T07:05:31;59.74;51.19;73.98;;
47109;Laerm;32856;51.422;6.794;2023-04-01T07:08:08;62.87;51.90;77.20;;
47109;Laerm;32856;51.422;6.794;2023-04-01T07:10:40;61.56;52.37;74.76;;
47109;Laerm;32856;51.422;6.794;2023-04-01T07:13:12;66.66;51.03;79.55;;
47109;Laerm;32856;51.422;6.794;2023-04-01T07:15:42;66.63;52.09;81.67;;
47109;Laerm;32856;51.422;6.794;2023-04-01T07:18:12;60.50;53.50;78.68;;
47109;Laerm;32856;51.422;6.794;2023-04-01T07:20:42;63.04;53.89;76.99;;
47109;Laerm;32856;51.422;6.794;2023-04-01T07:23:10;67.41;53.60;78.08;;
47109;Laerm;32856;51.422;6.794;2023-04-01T07:25:41;61.23;51.72;73.96;;
47109;Laerm;32856;51.422;6.794;2023-04-01T07:28:12;65.37;51.84;77.51;;
47109;Laerm;32856;51.422;6.794;2023-04-01T07:30:46;66.84;52.72;77.88;;
47109;Laerm;32856;51.422;6.794;2023-04-01T07:33:19;60.25;51.91;74.45;;
47109;Laerm;32856;51.422;6.794;2023-04-01T07:35:48;68.09;53.69;78.39;;
47109;Laerm;32856;51.422;6.794;2023-04-01T07:38:21;65.00;52.20;76.81;;
47109;Laerm;32856;51.422;6.794;2023-04-01T07:40:53;65.52;51.36;79.56;;
47109;Laerm;32856;51.422;6.794;2023-04-01T07:43:32;63.64;51.59;77.00;;
47109;Laerm;32856;51.422;6.794;2023-04-01T07:46:04;68.76;52.04;83.14;;
47109;Laerm;32856;51.422;6.794;2023-04-01T07:48:37;65.67;52.93;78.37;;
47109;Laerm;32856;51.422;6.794;2023-04-01T07:51:11;63.31;51.19;76.82;;
47109;Laerm;32856;51.422;6.794;2023-04-01T07:53:46;64.79;50.22;78.74;;
47109;Laerm;32856;51.422;6.794;2023-04-01T07:56:18;64.19;49.35;77.28;;
47109;Laerm;32856;51.422;6.794;2023-04-01T07:58:52;70.39;52.28;84.01;;
47109;Laerm;32856;51.422;6.794;2023-04-01T08:01:23;64.64;51.12;76.30;;
47109;Laerm;32856;51.422;6.794;2023-04-01T08:04:04;63.21;50.56;77.05;;
47109;Laerm;32856;51.422;6.794;2023-04-01T08:06:36;66.18;51.43;77.93;;
47109;Laerm;32856;51.422;6.794;2023-04-01T08:09:08;66.61;49.80;78.77;;
47109;Laerm;32856;51.422;6.794;2023-04-01T08:11:41;66.14;50.99;76.69;;
47109;Laerm;32856;51.422;6.794;2023-04-01T08:14:17;67.54;50.98;81.80;;
47109;Laerm;32856;51.422;6.794;2023-04-01T08:16:46;66.20;50.01;76.99;;
47109;Laerm;32856;51.422;6.794;2023-04-01T08:19:21;66.07;49.50;81.59;;
47109;Laerm;32856;51.422;6.794;2023-04-01T08:21:54;61.72;51.23;74.59;;
47109;Laerm;32856;51.422;6.794;2023-04-01T08:24:24;64.36;51.50;75.69;;
47109;Laerm;32856;51.422;6.794;2023-04-01T08:27:03;62.10;50.21;75.72;;
47109;Laerm;32856;51.422;6.794;2023-04-01T08:29:36;71.41;52.26;85.27;;
47109;Laerm;32856;51.422;6.794;2023-04-01T08:32:08;67.47;50.49;77.92;;
47109;Laerm;32856;51.422;6.794;2023-04-01T08:34:38;66.24;50.14;76.94;;
47109;Laerm;32856;51.422;6.794;2023-04-01T08:37:08;66.24;52.48;76.77;;
47109;Laerm;32856;51.422;6.794;2023-04-01T08:39:38;66.31;51.00;76.22;;
47109;Laerm;32856;51.422;6.794;2023-04-01T08:42:21;64.54;51.80;75.31;;
47109;Laerm;32856;51.422;6.794;2023-04-01T08:45:13;66.32;52.86;79.57;;
47109;Laerm;32856;51.422;6.794;2023-04-01T08:47:46;67.62;51.40;77.75;;
47109;Laerm;32856;51.422;6.794;2023-04-01T08:50:21;66.52;51.22;77.81;;
47109;Laerm;32856;51.422;6.794;2023-04-01T08:52:52;63.25;50.85;77.44;;
47109;Laerm;32856;51.422;6.794;2023-04-01T08:55:25;64.24;51.73;76.35;;
47109;Laerm;32856;51.422;6.794;2023-04-01T08:58:07;63.66;51.10;75.90;;
47109;Laerm;32856;51.422;6.794;2023-04-01T09:00:43;67.73;51.95;81.16;;
47109;Laerm;32856;51.422;6.794;2023-04-01T09:03:17;66.16;51.75;76.97;;
47109;Laerm;32856;51.422;6.794;2023-04-01T09:06:01;62.76;48.71;76.34;;
47109;Laerm;32856;51.422;6.794;2023-04-01T09:08:45;65.47;49.23;76.66;;
47109;Laerm;32856;51.422;6.794;2023-04-01T09:11:26;63.48;49.90;75.12;;
47109;Laerm;32856;51.422;6.794;2023-04-01T09:16:59;66.97;49.14;81.83;;
47109;Laerm;32856;51.422;6.794;2023-04-01T09:19:33;63.95;49.94;78.47;;
47109;Laerm;32856;51.422;6.794;2023-04-01T09:25:02;63.60;50.16;75.86;;
47109;Laerm;32856;51.422;6.794;2023-04-01T09:27:34;62.83;48.45;75.91;;
47109;Laerm;32856;51.422;6.794;2023-04-01T09:30:18;64.49;49.83;74.85;;
47109;Laerm;32856;51.422;6.794;2023-04-01T09:35:45;63.35;49.56;75.71;;
47109;Laerm;32856;51.422;6.794;2023-04-01T09:38:20;65.77;50.50;77.74;;
47109;Laerm;32856;51.422;6.794;2023-04-01T09:40:54;62.73;50.22;73.97;;
47109;Laerm;32856;51.422;6.794;2023-04-01T09:43:33;66.45;51.44;78.48;;
47109;Laerm;32856;51.422;6.794;2023-04-01T09:46:09;66.02;49.20;82.37;;
47109;Laerm;32856;51.422;6.794;2023-04-01T09:48:52;68.44;50.68;81.52;;
47109;Laerm;32856;51.422;6.794;2023-04-01T09:51:27;67.46;51.08;89.00;;
47109;Laerm;32856;51.422;6.794;2023-04-01T09:57:05;67.21;50.76;78.37;;
47109;Laerm;32856;51.422;6.794;2023-04-01T09:59:47;68.78;53.22;81.82;;
47109;Laerm;32856;51.422;6.794;2023-04-01T10:08:00;67.56;51.86;79.51;;
47109;Laerm;32856;51.422;6.794;2023-04-01T10:10:35;67.34;51.06;78.77;;
47109;Laerm;32856;51.422;6.794;2023-04-01T10:16:14;65.86;49.95;79.73;;
47109;Laerm;32856;51.422;6.794;2023-04-01T10:24:29;66.44;50.08;78.89;;
47109;Laerm;32856;51.422;6.794;2023-04-01T10:27:16;69.40;53.44;80.15;;
47109;Laerm;32856;51.422;6.794;2023-04-01T10:29:52;67.58;51.74;78.21;;
47109;Laerm;32856;51.422;6.794;2023-04-01T10:32:29;63.46;51.46;76.50;;
47109;Laerm;32856;51.422;6.794;2023-04-01T10:35:25;63.68;51.24;78.38;;
47109;Laerm;32856;51.422;6.794;2023-04-01T10:38:05;69.00;50.92;79.71;;
47109;Laerm;32856;51.422;6.794;2023-04-01T10:40:37;69.94;52.37;79.99;;
47109;Laerm;32856;51.422;6.794;2023-04-01T10:43:16;68.67;50.43;80.91;;
47109;Laerm;32856;51.422;6.794;2023-04-01T10:46:13;68.83;51.82;80.56;;
47109;Laerm;32856;51.422;6.794;2023-04-01T10:48:56;69.84;50.37;84.56;;
47109;Laerm;32856;51.422;6.794;2023-04-01T10:51:38;66.86;50.12;78.20;;
47109;Laerm;32856;51.422;6.794;2023-04-01T10:54:16;66.66;50.95;77.85;;
47109;Laerm;32856;51.422;6.794;2023-04-01T10:56:49;68.50;51.55;79.79;;
47109;Laerm;32856;51.422;6.794;2023-04-01T11:02:30;68.60;51.70;79.33;;
47109;Laerm;32856;51.422;6.794;2023-04-01T11:05:34;66.00;50.92;78.03;;
47109;Laerm;32856;51.422;6.794;2023-04-01T11:11:05;69.47;53.29;80.19;;
47109;Laerm;32856;51.422;6.794;2023-04-01T11:16:37;69.88;53.88;81.68;;
47109;Laerm;32856;51.422;6.794;2023-04-01T11:21:56;69.71;52.76;81.35;;
47109;Laerm;32856;51.422;6.794;2023-04-01T11:27:20;67.90;51.86;81.48;;
47109;Laerm;32856;51.422;6.794;2023-04-01T11:29:56;68.68;51.30;80.04;;
47109;Laerm;32856;51.422;6.794;2023-04-01T11:32:33;72.68;53.74;90.55;;
47109;Laerm;32856;51.422;6.794;2023-04-01T11:35:09;68.56;51.23;80.89;;
47109;Laerm;32856;51.422;6.794;2023-04-01T11:37:44;70.09;52.92;80.46;;
47109;Laerm;32856;51.422;6.794;2023-04-01T11:40:20;66.23;51.33;79.57;;
47109;Laerm;32856;51.422;6.794;2023-04-01T11:42:52;68.90;51.93;82.82;;
47109;Laerm;32856;51.422;6.794;2023-04-01T11:45:25;67.62;52.42;79.82;;
47109;Laerm;32856;51.422;6.794;2023-04-01T11:48:07;68.26;53.44;79.76;;
47109;Laerm;32856;51.422;6.794;2023-04-01T11:50:39;70.24;51.91;81.46;;
47109;Laerm;32856;51.422;6.794;2023-04-01T11:53:14;69.87;51.70;82.31;;
47109;Laerm;32856;51.422;6.794;2023-04-01T11:55:47;69.05;53.57;79.92;;
47109;Laerm;32856;51.422;6.794;2023-04-01T12:01:11;71.49;54.73;79.47;;
47109;Laerm;32856;51.422;6.794;2023-04-01T12:04:00;71.18;52.84;85.22;;
47109;Laerm;32856;51.422;6.794;2023-04-01T12:06:33;66.04;50.96;78.50;;
47109;Laerm;32856;51.422;6.794;2023-04-01T12:09:05;71.38;51.33;82.05;;
47109;Laerm;32856;51.422;6.794;2023-04-01T12:11:39;69.24;50.83;80.61;;
47109;Laerm;32856;51.422;6.794;2023-04-01T12:14:11;69.75;51.50;79.97;;
47109;Laerm;32856;51.422;6.794;2023-04-01T12:16:42;70.43;52.39;79.95;;
47109;Laerm;32856;51.422;6.794;2023-04-01T12:19:17;68.99;49.30;80.75;;
47109;Laerm;32856;51.422;6.794;2023-04-01T12:21:50;65.37;49.40;77.45;;
47109;Laerm;32856;51.422;6.794;2023-04-01T12:24:29;67.15;48.95;78.60;;
47109;Laerm;32856;51.422;6.794;2023-04-01T12:27:10;66.88;48.83;78.17;;
47109;Laerm;32856;51.422;6.794;2023-04-01T12:29:44;67.21;50.22;78.03;;
47109;Laerm;32856;51.422;6.794;2023-04-01T12:32:18;69.43;52.90;86.10;;
47109;Laerm;32856;51.422;6.794;2023-04-01T12:34:58;69.27;52.41;79.40;;
47109;Laerm;32856;51.422;6.794;2023-04-01T12:37:33;65.07;50.12;77.39;;
47109;Laerm;32856;51.422;6.794;2023-04-01T12:42:52;71.19;53.34;86.81;;
47109;Laerm;32856;51.422;6.794;2023-04-01T12:45:27;69.16;51.92;80.44;;
47109;Laerm;32856;51.422;6.794;2023-04-01T12:48:05;70.60;52.60;82.00;;
47109;Laerm;32856;51.422;6.794;2023-04-01T12:50:53;69.11;52.39;81.65;;
47109;Laerm;32856;51.422;6.794;2023-04-01T12:53:29;68.90;52.48;82.44;;
47109;Laerm;32856;51.422;6.794;2023-04-01T12:56:02;68.09;53.59;79.00;;
47109;Laerm;32856;51.422;6.794;2023-04-01T13:01:27;68.88;53.74;80.64;;
47109;Laerm;32856;51.422;6.794;2023-04-01T13:06:46;68.27;52.13;79.87;;
47109;Laerm;32856;51.422;6.794;2023-04-01T13:09:21;68.35;51.91;82.13;;
47109;Laerm;32856;51.422;6.794;2023-04-01T13:11:59;68.58;52.19;80.27;;
47109;Laerm;32856;51.422;6.794;2023-04-01T13:14:36;70.10;52.21;81.54;;
47109;Laerm;32856;51.422;6.794;2023-04-01T13:17:09;68.41;52.71;78.63;;
47109;Laerm;32856;51.422;6.794;2023-04-01T13:19:38;71.05;53.10;83.81;;
47109;Laerm;32856;51.422;6.794;2023-04-01T13:22:18;64.21;52.78;78.49;;
47109;Laerm;32856;51.422;6.794;2023-04-01T13:24:50;70.33;52.92;81.23;;
47109;Laerm;32856;51.422;6.794;2023-04-01T13:27:20;67.91;52.57;80.05;;
47109;Laerm;32856;51.422;6.794;2023-04-01T13:29:57;68.49;52.53;85.85;;
47109;Laerm;32856;51.422;6.794;2023-04-01T13:32:29;69.50;54.62;80.39;;
47109;Laerm;32856;51.422;6.794;2023-04-01T13:35:10;69.05;53.52;81.71;;
47109;Laerm;32856;51.422;6.794;2023-04-01T13:41:15;68.99;53.23;82.92;;
47109;Laerm;32856;51.422;6.794;2023-04-01T13:43:49;66.07;53.67;89.38;;
47109;Laerm;32856;51.422;6.794;2023-04-01T13:46:29;67.70;53.56;82.03;;
47109;Laerm;32856;51.422;6.794;2023-04-01T13:51:59;70.73;54.83;81.53;;
47109;Laerm;32856;51.422;6.794;2023-04-01T13:54:43;69.27;53.25;81.17;;
47109;Laerm;32856;51.422;6.794;2023-04-01T13:57:22;66.97;52.37;78.35;;
47109;Laerm;32856;51.422;6.794;2023-04-01T13:59:59;68.77;51.16;80.62;;
47109;Laerm;32856;51.422;6.794;2023-04-01T14:02:44;67.83;51.77;82.23;;
47109;Laerm;32856;51.422;6.794;2023-04-01T14:05:23;67.32;52.07;79.25;;
47109;Laerm;32856;51.422;6.794;2023-04-01T14:08:09;66.58;51.96;79.17;;
47109;Laerm;32856;51.422;6.794;2023-04-01T14:10:42;65.00;51.13;79.89;;
47109;Laerm;32856;51.422;6.794;2023-04-01T14:13:15;67.68;51.25;83.64;;
47109;Laerm;32856;51.422;6.794;2023-04-01T14:15:50;68.98;51.61;80.40;;
47109;Laerm;32856;51.422;6.794;2023-04-01T14:18:30;69.38;51.80;81.17;;
47109;Laerm;32856;51.422;6.794;2023-04-01T14:21:06;65.53;50.55;80.54;;
47109;Laerm;32856;51.422;6.794;2023-04-01T14:23:53;66.04;51.08;78.68;;
47109;Laerm;32856;51.422;6.794;2023-04-01T14:26:29;65.73;50.57;80.64;;
47109;Laerm;32856;51.422;6.794;2023-04-01T14:29:04;66.77;51.61;78.46;;
47109;Laerm;32856;51.422;6.794;2023-04-01T14:31:42;66.72;51.51;79.43;;
47109;Laerm;32856;51.422;6.794;2023-04-01T14:34:16;63.70;51.07;77.59;;
47109;Laerm;32856;51.422;6.794;2023-04-01T14:36:49;64.35;51.53;78.27;;
47109;Laerm;32856;51.422;6.794;2023-04-01T14:39:29;69.17;53.93;80.01;;
47109;Laerm;32856;51.422;6.794;2023-04-01T14:42:04;68.09;52.99;81.01;;
47109;Laerm;32856;51.422;6.794;2023-04-01T14:45:08;67.09;53.79;78.99;;
47109;Laerm;32856;51.422;6.794;2023-04-01T14:47:47;66.35;52.28;80.10;;
47109;Laerm;32856;51.422;6.794;2023-04-01T14:50:16;68.16;55.13;80.36;;
47109;Laerm;32856;51.422;6.794;2023-04-01T14:52:46;68.07;53.90;80.15;;
47109;Laerm;32856;51.422;6.794;2023-04-01T14:55:20;65.68;52.80;78.12;;
47109;Laerm;32856;51.422;6.794;2023-04-01T14:57:59;66.18;53.38;78.37;;
47109;Laerm;32856;51.422;6.794;2023-04-01T15:00:28;68.61;55.40;80.94;;
47109;Laerm;32856;51.422;6.794;2023-04-01T15:03:07;65.89;52.74;79.77;;
47109;Laerm;32856;51.422;6.794;2023-04-01T15:05:43;65.21;52.48;79.97;;
47109;Laerm;32856;51.422;6.794;2023-04-01T15:08:16;67.61;53.77;79.85;;
47109;Laerm;32856;51.422;6.794;2023-04-01T15:13:43;67.29;52.38;81.34;;
47109;Laerm;32856;51.422;6.794;2023-04-01T15:16:18;66.29;51.17;78.46;;
47109;Laerm;32856;51.422;6.794;2023-04-01T15:18:51;65.65;51.43;77.18;;
47109;Laerm;32856;51.422;6.794;2023-04-01T15:21:24;63.92;51.34;79.04;;
47109;Laerm;32856;51.422;6.794;2023-04-01T15:23:57;69.89;52.81;80.94;;